Time;durP1;ratioP1;P1;durP2;ratioP2;P2;SDS_P1;SDS_P2;PMS_P1;PMS_P2;Temp;Humidity;BMP_temperature;BMP_pressure;BME280_temperature;BME280_humidity;BME280_pressure;Samples;Min_cycle;Max_cycle;Signal;HPM_P1;HPM_P2
2022/05/02 00:01:31;;;;;;;9.50;6.57;;;;;;;11.94;100.00;99339.31;4966941;28;20204;-79
2022/05/02 00:04:03;;;;;;;7.53;5.47;;;;;;;12.03;100.00;99336.91;4993354;28;20229;-79
2022/05/02 00:06:33;;;;;;;7.87;5.63;;;;;;;12.09;100.00;99340.97;5059815;28;20284;-81
2022/05/02 00:09:07;;;;;;;8.60;5.60;;;;;;;12.09;100.00;99333.00;5055838;28;20193;-80
2022/05/02 00:11:36;;;;;;;8.90;5.77;;;;;;;12.20;100.00;99333.13;5020098;28;20201;-79
2022/05/02 00:14:10;;;;;;;8.37;5.93;;;;;;;12.13;100.00;99331.81;5010105;28;20202;-79
2022/05/02 00:16:42;;;;;;;9.53;5.80;;;;;;;12.12;100.00;99327.47;5008653;28;20222;-79
2022/05/02 00:19:12;;;;;;;11.57;5.67;;;;;;;12.09;100.00;99329.50;5013840;28;20202;-79
2022/05/02 00:21:41;;;;;;;10.37;5.50;;;;;;;12.02;100.00;99321.06;5009037;28;20199;-79
2022/05/02 00:24:10;;;;;;;10.07;6.40;;;;;;;11.83;100.00;99320.59;5004501;28;20202;-79
2022/05/02 00:26:41;;;;;;;8.13;5.63;;;;;;;11.82;100.00;99318.91;5009710;28;20194;-79
2022/05/02 00:29:12;;;;;;;9.53;6.07;;;;;;;11.78;100.00;99323.56;5022304;28;20699;-79
2022/05/02 00:31:42;;;;;;;7.57;5.90;;;;;;;11.57;100.00;99317.81;5052740;28;20189;-79
2022/05/02 00:34:10;;;;;;;8.53;5.80;;;;;;;11.54;100.00;99320.69;5053601;28;20196;-79
2022/05/02 00:36:40;;;;;;;9.90;5.67;;;;;;;11.50;100.00;99321.00;5050512;28;20276;-79
2022/05/02 00:39:12;;;;;;;10.50;6.03;;;;;;;11.61;100.00;99315.84;5052586;28;20208;-79
2022/05/02 00:41:43;;;;;;;9.87;6.00;;;;;;;11.63;100.00;99316.59;5055621;28;20203;-81
2022/05/02 00:44:14;;;;;;;6.90;5.80;;;;;;;11.52;100.00;99312.00;5051662;28;20189;-80
2022/05/02 00:46:43;;;;;;;10.63;5.80;;;;;;;11.53;100.00;99310.19;5053078;28;20197;-80
2022/05/02 00:49:14;;;;;;;8.93;6.17;;;;;;;11.46;100.00;99310.56;5048336;28;20197;-79
2022/05/02 00:51:44;;;;;;;8.93;5.87;;;;;;;11.31;100.00;99308.09;5054943;28;20193;-79
2022/05/02 00:54:13;;;;;;;10.73;6.60;;;;;;;11.26;100.00;99313.66;5046155;28;20200;-80
2022/05/02 00:56:43;;;;;;;8.37;6.73;;;;;;;11.53;100.00;99305.72;5048568;28;20236;-79
2022/05/02 00:59:18;;;;;;;10.37;6.23;;;;;;;11.35;100.00;99310.44;5048942;28;20252;-80
2022/05/02 01:01:47;;;;;;;10.67;6.77;;;;;;;11.40;100.00;99313.66;5045087;28;20192;-80
2022/05/02 01:04:16;;;;;;;8.50;6.03;;;;;;;11.50;100.00;99305.09;5046449;28;20235;-80
2022/05/02 01:09:33;;;;;;;8.87;6.20;;;;;;;11.53;100.00;99302.22;5050530;28;20200;-79
2022/05/02 01:12:05;;;;;;;6.97;5.77;;;;;;;11.43;100.00;99301.97;5050735;28;20262;-80
2022/05/02 01:14:36;;;;;;;9.43;6.20;;;;;;;11.30;100.00;99304.59;5045762;28;20712;-80
2022/05/02 01:17:05;;;;;;;9.03;6.23;;;;;;;11.22;100.00;99306.03;5001724;28;20234;-80
2022/05/02 01:19:35;;;;;;;9.00;6.27;;;;;;;11.31;100.00;99300.13;5009937;28;20197;-80
2022/05/02 01:22:12;;;;;;;10.47;6.30;;;;;;;11.22;100.00;99304.22;5008061;28;20210;-80
2022/05/02 01:24:43;;;;;;;9.97;6.43;;;;;;;11.28;100.00;99298.50;5008063;28;20197;-79
2022/05/02 01:27:13;;;;;;;11.13;6.37;;;;;;;11.28;100.00;99298.50;5008903;28;20245;-80
2022/05/02 01:29:43;;;;;;;7.93;6.27;;;;;;;11.20;100.00;99297.31;5007891;28;20250;-80
2022/05/02 01:32:13;;;;;;;9.20;6.60;;;;;;;10.80;100.00;99298.03;5011248;28;20242;-80
2022/05/02 01:34:42;;;;;;;9.37;6.50;;;;;;;10.89;100.00;99292.16;5018002;28;20224;-80
2022/05/02 01:37:14;;;;;;;9.93;6.70;;;;;;;10.68;100.00;99293.50;5050903;28;20356;-80
2022/05/02 01:39:43;;;;;;;9.37;6.37;;;;;;;10.89;100.00;99292.16;5054197;28;20193;-80
2022/05/02 01:42:13;;;;;;;10.17;7.10;;;;;;;10.94;100.00;99297.19;5053062;28;20196;-80
2022/05/02 01:44:42;;;;;;;12.07;7.10;;;;;;;10.94;100.00;99291.88;5059764;28;20209;-80
2022/05/02 01:47:10;;;;;;;11.07;6.93;;;;;;;10.95;100.00;99290.94;5059434;28;20196;-80
2022/05/02 01:49:38;;;;;;;11.67;6.73;;;;;;;10.99;100.00;99289.78;5056749;28;20236;-80
2022/05/02 01:52:08;;;;;;;8.23;6.30;;;;;;;10.89;100.00;99291.31;5059178;28;20826;-80
2022/05/02 01:54:38;;;;;;;7.57;6.40;;;;;;;10.84;100.00;99280.16;5058679;28;20204;-79
2022/05/02 01:57:07;;;;;;;10.57;6.77;;;;;;;10.86;100.00;99283.56;5050781;28;20217;-81
2022/05/02 01:59:36;;;;;;;9.93;6.40;;;;;;;10.83;100.00;99284.59;5031684;28;20204;-79
2022/05/02 02:02:06;;;;;;;10.10;7.10;;;;;;;10.72;100.00;99287.09;5027577;28;20189;-81
2022/05/02 02:07:21;;;;;;;14.57;7.33;;;;;;;10.71;100.00;99290.69;5033563;28;20201;-79
2022/05/02 02:09:51;;;;;;;9.40;7.10;;;;;;;10.77;100.00;99292.09;5029604;28;20252;-79
2022/05/02 02:12:23;;;;;;;11.23;6.77;;;;;;;10.56;100.00;99291.63;5032886;28;20229;-79
2022/05/02 02:14:52;;;;;;;8.77;7.30;;;;;;;10.62;100.00;99285.09;5027242;28;20696;-79
2022/05/02 02:17:27;;;;;;;13.67;7.07;;;;;;;10.55;100.00;99288.13;5031839;28;20221;-79
2022/05/02 02:19:57;;;;;;;10.43;7.10;;;;;;;10.57;100.00;99288.03;5058876;28;20193;-79
2022/05/02 02:22:29;;;;;;;10.77;7.40;;;;;;;10.62;100.00;99296.56;5051739;28;20488;-80
2022/05/02 02:25:00;;;;;;;8.40;7.00;;;;;;;10.67;100.00;99294.44;5053835;28;20186;-79
2022/05/02 02:27:31;;;;;;;11.10;7.63;;;;;;;10.77;100.00;99289.44;5017539;28;20272;-79
2022/05/02 02:30:00;;;;;;;12.97;7.07;;;;;;;10.75;100.00;99286.03;5010511;28;20222;-80
2022/05/02 02:32:30;;;;;;;11.17;6.43;;;;;;;10.84;100.00;99281.00;4971960;28;20231;-80
2022/05/02 02:35:03;;;;;;;12.33;7.20;;;;;;;10.86;100.00;99284.41;4973299;28;20192;-79
2022/05/02 02:37:34;;;;;;;13.27;7.13;;;;;;;10.75;100.00;99283.38;4951721;29;20258;-79
2022/05/02 02:40:09;;;;;;;14.03;7.20;;;;;;;10.58;100.00;99284.44;4953412;28;20235;-80
2022/05/02 02:42:38;;;;;;;10.67;6.93;;;;;;;10.59;100.00;99283.47;4952023;29;20192;-80
2022/05/02 02:45:08;;;;;;;12.90;7.13;;;;;;;10.47;100.00;99279.78;4958183;28;20191;-80
2022/05/02 02:47:37;;;;;;;11.00;7.27;;;;;;;10.47;100.00;99284.25;4971002;28;20263;-80
2022/05/02 02:50:07;;;;;;;12.37;7.57;;;;;;;10.67;100.00;99283.00;4980535;28;20256;-80
2022/05/02 02:52:36;;;;;;;11.53;6.57;;;;;;;10.69;100.00;99276.66;4988748;28;20382;-80
2022/05/02 02:55:09;;;;;;;10.53;7.00;;;;;;;10.58;100.00;99274.69;4993686;28;20210;-80
2022/05/02 02:57:38;;;;;;;8.37;6.97;;;;;;;10.56;100.00;99266.00;4915288;29;20221;-80
2022/05/02 03:00:08;;;;;;;9.03;7.13;;;;;;;10.53;100.00;99263.53;4913490;29;20210;-79
2022/05/02 03:02:39;;;;;;;14.90;7.00;;;;;;;10.45;100.00;99257.88;4917131;29;20205;-80
2022/05/02 03:08:00;;;;;;;13.97;7.10;;;;;;;10.29;100.00;99259.75;4930557;28;20199;-79
2022/05/02 03:10:31;;;;;;;12.13;7.27;;;;;;;10.39;100.00;99257.38;4993185;28;20195;-80
2022/05/02 03:12:59;;;;;;;14.03;7.87;;;;;;;10.31;100.00;99258.69;4987170;28;20198;-80
2022/05/02 03:15:29;;;;;;;11.93;7.63;;;;;;;10.27;100.00;99259.84;5005250;28;20231;-79
2022/05/02 03:17:58;;;;;;;10.37;7.60;;;;;;;10.34;100.00;99262.13;5054158;28;20243;-80
2022/05/02 03:20:26;;;;;;;9.83;7.43;;;;;;;10.30;100.00;99264.09;5033028;28;20194;-79
2022/05/02 03:22:54;;;;;;;10.40;7.57;;;;;;;10.42;100.00;99262.47;5023807;28;20202;-80
2022/05/02 03:25:23;;;;;;;10.37;7.77;;;;;;;10.19;100.00;99253.28;5028012;28;20194;-79
2022/05/02 03:27:54;;;;;;;10.20;7.37;;;;;;;10.17;100.00;99263.97;5028429;28;20216;-80
2022/05/02 03:30:23;;;;;;;11.40;8.30;;;;;;;10.22;100.00;99253.13;5029737;28;20253;-80
2022/05/02 03:32:54;;;;;;;11.07;7.43;;;;;;;10.22;100.00;99250.47;5025715;28;20282;-80
2022/05/02 03:35:22;;;;;;;10.57;7.10;;;;;;;10.30;100.00;99248.22;5027558;28;20206;-79
2022/05/02 03:37:55;;;;;;;11.47;8.30;;;;;;;10.13;100.00;99245.69;5030608;28;20221;-80
2022/05/02 03:40:25;;;;;;;12.90;7.73;;;;;;;10.20;100.00;99247.88;5049519;28;20204;-80
2022/05/02 03:42:55;;;;;;;13.23;8.53;;;;;;;10.15;100.00;99243.84;5054858;28;20197;-80
2022/05/02 03:45:24;;;;;;;13.33;7.53;;;;;;;10.02;100.00;99236.63;5052487;28;20189;-80
2022/05/02 03:47:52;;;;;;;10.73;8.03;;;;;;;10.04;100.00;99244.50;5053129;28;20197;-80
2022/05/02 03:50:23;;;;;;;12.93;7.60;;;;;;;9.98;100.00;99236.91;5051658;28;20209;-80
2022/05/02 03:52:55;;;;;;;10.20;7.87;;;;;;;10.02;100.00;99247.19;5052418;28;20201;-79
2022/05/02 03:55:24;;;;;;;11.57;7.90;;;;;;;9.95;100.00;99253.81;5032262;28;20256;-80
2022/05/02 03:57:54;;;;;;;11.27;7.43;;;;;;;9.86;100.00;99246.44;5024281;28;20221;-80
2022/05/02 04:00:23;;;;;;;13.50;8.40;;;;;;;9.82;100.00;99254.63;5029422;28;20202;-80
2022/05/02 04:02:54;;;;;;;13.23;7.57;;;;;;;9.91;100.00;99249.66;5031110;28;20657;-80
2022/05/02 04:05:23;;;;;;;12.23;7.97;;;;;;;9.96;100.00;99246.75;5029840;28;20194;-80
2022/05/02 04:07:51;;;;;;;10.63;8.33;;;;;;;9.77;100.00;99246.13;5024026;28;20333;-80
2022/05/02 04:10:19;;;;;;;11.67;8.30;;;;;;;9.90;100.00;99252.38;5019464;28;20210;-80
2022/05/02 04:12:48;;;;;;;14.43;8.40;;;;;;;9.76;100.00;99245.28;5035739;28;20276;-80
2022/05/02 04:15:18;;;;;;;12.33;7.87;;;;;;;9.64;100.00;99251.28;5053985;28;20201;-80
2022/05/02 04:17:46;;;;;;;12.03;8.60;;;;;;;9.56;100.00;99254.38;5053652;28;20216;-79
2022/05/02 04:20:14;;;;;;;13.00;8.90;;;;;;;9.54;100.00;99250.97;5055077;28;20193;-80
2022/05/02 04:22:44;;;;;;;13.10;8.30;;;;;;;9.56;100.00;99253.53;5052184;28;20229;-79
2022/05/02 04:25:13;;;;;;;14.97;8.60;;;;;;;9.63;100.00;99257.50;5055864;28;20196;-80
2022/05/02 04:27:43;;;;;;;9.80;7.53;;;;;;;9.59;100.00;99254.19;5053370;28;20197;-79
2022/05/02 04:30:17;;;;;;;9.70;7.97;;;;;;;9.77;100.00;99251.41;5030445;28;20198;-79
2022/05/02 04:32:47;;;;;;;12.63;8.70;;;;;;;9.65;100.00;99252.97;5025615;28;20252;-79
2022/05/02 04:35:17;;;;;;;14.63;8.43;;;;;;;9.50;100.00;99252.09;5025406;28;20204;-80
2022/05/02 04:37:45;;;;;;;11.40;8.33;;;;;;;9.55;100.00;99252.66;5010439;28;20221;-81
2022/05/02 04:40:14;;;;;;;11.20;8.20;;;;;;;9.58;100.00;99257.78;5013693;28;20273;-80
2022/05/02 04:42:42;;;;;;;13.07;8.10;;;;;;;9.57;100.00;99253.44;5013450;28;20708;-80
2022/05/02 04:45:11;;;;;;;13.33;7.67;;;;;;;9.67;100.00;99248.47;5012203;28;20210;-79
2022/05/02 04:47:39;;;;;;;11.20;8.13;;;;;;;9.75;100.00;99248.88;5013537;28;20198;-80
2022/05/02 04:50:10;;;;;;;11.53;7.77;;;;;;;9.65;100.00;99251.22;5010846;28;20206;-80
2022/05/02 04:52:39;;;;;;;11.67;8.27;;;;;;;9.63;100.00;99253.06;5013231;28;20690;-80
2022/05/02 04:55:08;;;;;;;12.10;8.33;;;;;;;9.59;100.00;99254.19;5012580;28;20201;-79
2022/05/02 04:57:36;;;;;;;12.03;7.80;;;;;;;9.67;100.00;99251.97;4989472;28;20222;-80
2022/05/02 05:00:06;;;;;;;11.23;7.73;;;;;;;9.84;100.00;99250.09;4958964;28;20806;-79
2022/05/02 05:02:35;;;;;;;11.53;8.23;;;;;;;9.72;100.00;99251.69;4992462;28;20738;-80
2022/05/02 05:05:05;;;;;;;15.90;8.70;;;;;;;9.63;100.00;99247.78;4992012;28;20206;-80
2022/05/02 05:07:36;;;;;;;12.57;8.00;;;;;;;9.77;100.00;99244.34;4991003;28;20195;-80
2022/05/02 05:10:09;;;;;;;11.87;7.97;;;;;;;9.96;100.00;99249.38;4992150;28;20207;-79
2022/05/02 05:12:47;;;;;;;11.73;8.00;;;;;;;10.00;100.00;99248.25;4990657;28;20215;-80
2022/05/02 05:18:29;;;;;;;12.53;8.37;;;;;;;10.07;100.00;99254.03;4991579;28;20218;-80
2022/05/02 05:21:03;;;;;;;12.73;8.60;;;;;;;10.06;100.00;99250.53;4992006;28;20233;-81
2022/05/02 05:24:36;;;;;;;11.87;7.77;;;;;;;9.92;100.00;99251.34;4990923;28;20187;-80
2022/05/02 05:27:12;;;;;;;18.23;7.70;;;;;;;9.83;100.00;99248.41;4994259;28;20207;-79
2022/05/02 05:29:48;;;;;;;9.67;7.67;;;;;;;9.92;100.00;99247.84;5042497;28;20207;-80
2022/05/02 05:32:28;;;;;;;16.70;8.10;;;;;;;10.21;100.00;99246.09;5053041;28;20221;-80
2022/05/02 05:35:05;;;;;;;10.60;8.20;;;;;;;10.17;100.00;99245.44;5052888;28;20254;-79
2022/05/02 05:38:12;;;;;;;15.53;8.57;;;;;;;10.15;100.00;99251.78;5049187;28;20205;-80
2022/05/02 05:40:43;;;;;;;12.00;8.07;;;;;;;10.22;100.00;99246.03;5048084;28;20208;-80
2022/05/02 05:43:25;;;;;;;12.50;8.60;;;;;;;10.30;100.00;99245.56;5052753;28;20557;-80
2022/05/02 05:46:06;;;;;;;12.30;8.20;;;;;;;10.42;100.00;99246.59;5052490;28;20299;-80
2022/05/02 05:48:47;;;;;;;12.63;8.47;;;;;;;10.35;100.00;99243.50;5050880;28;20621;-80
2022/05/02 05:51:29;;;;;;;13.07;7.93;;;;;;;10.35;100.00;99248.78;5049210;28;20203;-80
2022/05/02 05:54:11;;;;;;;9.20;7.30;;;;;;;10.42;100.00;99249.25;5049896;28;20276;-80
2022/05/02 05:56:51;;;;;;;13.40;7.83;;;;;;;10.46;100.00;99248.97;5048904;28;20193;-79
2022/05/02 05:59:42;;;;;;;12.37;8.00;;;;;;;10.40;100.00;99245.84;5053887;28;20216;-80
2022/05/02 06:02:19;;;;;;;10.57;8.00;;;;;;;10.42;100.00;99252.78;5051331;28;20193;-79
2022/05/02 06:04:50;;;;;;;12.70;8.87;;;;;;;10.51;100.00;99252.16;5048136;28;20185;-80
2022/05/02 06:07:23;;;;;;;10.70;7.87;;;;;;;10.59;100.00;99249.03;5051921;28;20228;-80
2022/05/02 06:09:53;;;;;;;9.60;7.90;;;;;;;10.73;100.00;99254.34;5050306;28;20197;-80
2022/05/02 06:12:25;;;;;;;9.90;7.70;;;;;;;10.83;100.00;99254.63;5051414;28;20205;-80
2022/05/02 06:20:34;;;;;;;15.07;9.40;;;;;;;11.18;100.00;99254.97;5054589;28;20228;-80
2022/05/02 06:23:03;;;;;;;10.50;8.17;;;;;;;11.14;100.00;99259.66;5052827;28;20204;-80
2022/05/02 06:25:36;;;;;;;9.50;7.20;;;;;;;11.37;100.00;99251.97;5053420;28;20200;-80
2022/05/02 06:28:08;;;;;;;11.70;7.93;;;;;;;11.45;100.00;99257.63;5053444;28;20209;-80
2022/05/02 06:30:40;;;;;;;11.53;7.47;;;;;;;11.57;100.00;99258.63;5052364;28;20216;-80
2022/05/02 06:33:12;;;;;;;10.47;7.77;;;;;;;11.65;100.00;99257.16;5056078;28;20229;-80
2022/05/02 06:36:15;;;;;;;12.97;7.23;;;;;;;11.77;100.00;99258.13;5057028;28;20205;-81
2022/05/02 06:38:52;;;;;;;9.47;7.70;;;;;;;11.76;100.00;99254.63;5050250;28;20216;-80
2022/05/02 06:41:36;;;;;;;11.37;7.27;;;;;;;11.84;100.00;99250.66;5055875;28;20196;-80
2022/05/02 06:44:14;;;;;;;11.20;8.00;;;;;;;11.95;100.00;99248.13;5053697;28;20185;-80
2022/05/02 06:46:50;;;;;;;9.47;6.77;;;;;;;12.31;100.00;99242.94;5057183;28;20188;-80
2022/05/02 06:49:19;;;;;;;12.60;8.80;;;;;;;12.39;100.00;99242.41;5055598;28;20284;-80
2022/05/02 06:51:51;;;;;;;10.13;9.13;;;;;;;12.33;100.00;99242.81;5054667;28;20212;-81
2022/05/02 06:54:44;;;;;;;9.47;7.20;;;;;;;12.45;100.00;99243.75;5050464;28;20315;-80
2022/05/02 06:57:24;;;;;;;10.20;6.90;;;;;;;12.65;100.00;99235.25;5052767;28;20209;-80
2022/05/02 07:00:04;;;;;;;9.77;6.70;;;;;;;12.63;100.00;99233.63;5054267;28;20231;-80
2022/05/02 07:03:03;;;;;;;10.53;6.97;;;;;;;12.87;100.00;99231.91;5055906;28;20189;-79
2022/05/02 07:05:45;;;;;;;11.33;6.73;;;;;;;12.82;100.00;99237.53;5051951;28;20196;-80
2022/05/02 07:08:20;;;;;;;9.17;6.23;;;;;;;12.85;100.00;99236.47;5053952;28;20256;-80
2022/05/02 07:10:57;;;;;;;10.40;6.20;;;;;;;12.86;100.00;99231.03;5051164;28;20248;-80
2022/05/02 07:13:38;;;;;;;11.10;6.80;;;;;;;12.82;100.00;99237.53;5049861;28;20215;-80
2022/05/02 07:16:22;;;;;;;9.50;6.67;;;;;;;12.71;100.00;99233.94;5050248;28;20192;-80
2022/05/02 07:19:06;;;;;;;12.40;7.17;;;;;;;12.92;100.00;99228.88;5053211;28;20220;-80
2022/05/02 07:21:47;;;;;;;9.93;6.80;;;;;;;12.92;100.00;99231.53;5048065;28;20198;-80
2022/05/02 07:24:26;;;;;;;7.70;5.87;;;;;;;13.27;100.00;99227.19;5047442;28;20193;-80
2022/05/02 07:27:03;;;;;;;10.03;6.40;;;;;;;13.30;100.00;99218.13;5049095;28;20223;-80
2022/05/02 07:29:36;;;;;;;10.37;6.20;;;;;;;13.42;100.00;99225.22;5041049;28;20362;-80
2022/05/02 07:32:10;;;;;;;11.43;6.20;;;;;;;13.54;100.00;99226.97;5046768;28;20197;-80
2022/05/02 07:34:40;;;;;;;10.00;6.40;;;;;;;13.48;100.00;99229.22;5042565;28;20243;-81
2022/05/02 07:37:11;;;;;;;10.20;6.50;;;;;;;13.77;100.00;99230.53;5043208;28;20207;-80
2022/05/02 07:39:41;;;;;;;8.77;6.43;;;;;;;13.85;100.00;99221.97;5046766;28;20217;-80
2022/05/02 07:42:10;;;;;;;9.63;6.40;;;;;;;13.85;100.00;99236.13;5051338;28;20201;-80
2022/05/02 07:44:39;;;;;;;11.27;6.47;;;;;;;13.80;100.00;99240.97;5047279;28;20200;-81
2022/05/02 07:47:11;;;;;;;8.57;6.00;;;;;;;13.66;100.00;99239.34;5046451;28;20652;-81
2022/05/02 07:49:44;;;;;;;8.10;6.70;;;;;;;13.66;100.00;99236.69;5030991;28;20209;-81
2022/05/02 07:52:17;;;;;;;9.60;6.40;;;;;;;13.99;100.00;99227.06;5027859;28;20227;-81
2022/05/02 07:54:48;;;;;;;9.73;6.27;;;;;;;13.92;100.00;99226.72;5024512;28;20201;-81
2022/05/02 07:57:21;;;;;;;8.80;6.70;;;;;;;14.01;100.00;99227.81;5032851;28;20190;-80
2022/05/02 07:59:57;;;;;;;10.40;6.20;;;;;;;14.22;100.00;99230.63;5028738;28;20225;-80
2022/05/02 08:02:27;;;;;;;10.13;5.90;;;;;;;14.46;100.00;99227.88;5030279;28;20289;-81
2022/05/02 08:04:57;;;;;;;8.73;5.80;;;;;;;14.56;100.00;99223.53;5029469;28;20284;-80
2022/05/02 08:07:32;;;;;;;9.90;5.70;;;;;;;14.76;100.00;99222.78;5028877;28;20228;-80
2022/05/02 08:10:40;;;;;;;11.33;6.47;;;;;;;14.84;100.00;99220.34;5013309;28;20197;-80
2022/05/02 08:13:39;;;;;;;8.80;5.90;;;;;;;15.11;100.00;99224.44;4987608;28;20301;-80
2022/05/02 08:16:19;;;;;;;7.23;6.03;;;;;;;15.38;100.00;99222.16;5011009;28;20250;-80
2022/05/02 08:19:21;;;;;;;9.53;6.07;;;;;;;15.79;100.00;99220.53;5008196;28;20220;-81
2022/05/02 08:27:15;;;;;;;8.67;5.80;;;;;;;16.03;100.00;99212.28;5007151;28;20229;-80
2022/05/02 08:27:56;;;;;;;5.90;5.10;;;;;;;16.11;100.00;99214.28;4996469;28;20197;-80
2022/05/02 08:30:27;;;;;;;7.20;5.70;;;;;;;15.68;100.00;99210.78;5056927;28;20201;-81
2022/05/02 08:33:04;;;;;;;9.27;5.70;;;;;;;16.07;100.00;99208.34;5053622;28;20229;-81
2022/05/02 08:35:57;;;;;;;9.50;5.43;;;;;;;16.39;100.00;99210.91;5053532;28;20197;-81
2022/05/02 08:38:45;;;;;;;8.47;6.07;;;;;;;16.00;100.00;99209.84;5040646;28;20244;-81
2022/05/02 08:41:58;;;;;;;6.77;5.93;;;;;;;16.37;100.00;99212.03;5054863;28;20212;-81
2022/05/02 08:45:03;;;;;;;10.80;5.87;;;;;;;16.68;100.00;99205.72;5051361;28;20201;-81
2022/05/02 08:47:59;;;;;;;7.87;5.67;;;;;;;16.59;100.00;99209.16;5052740;28;20204;-81
2022/05/02 08:51:01;;;;;;;6.63;5.47;;;;;;;16.70;100.00;99206.44;5048499;28;20308;-81
2022/05/02 08:54:05;;;;;;;5.73;5.13;;;;;;;17.30;100.00;99209.94;5001732;28;20196;-81
2022/05/02 08:57:14;;;;;;;9.57;6.00;;;;;;;16.70;100.00;99218.97;5051380;28;20204;-80
2022/05/02 09:00:06;;;;;;;11.83;6.13;;;;;;;16.99;100.00;99217.22;5025831;28;20227;-81
2022/05/02 09:03:08;;;;;;;7.27;5.70;;;;;;;16.91;100.00;99218.91;4952556;29;20196;-81
2022/05/02 09:06:08;;;;;;;7.90;5.93;;;;;;;17.57;100.00;99209.25;4933513;28;20207;-81
2022/05/02 09:09:12;;;;;;;8.07;5.67;;;;;;;17.83;100.00;99208.69;4964824;28;20195;-81
2022/05/02 09:12:03;;;;;;;8.83;6.10;;;;;;;18.02;100.00;99204.13;4967479;28;20211;-81
2022/05/02 09:14:56;;;;;;;8.10;5.87;;;;;;;17.92;100.00;99206.00;4967531;28;20282;-81
2022/05/02 09:18:08;;;;;;;9.60;6.17;;;;;;;17.95;100.00;99199.50;4931566;29;20208;-81
2022/05/02 09:20:59;;;;;;;7.90;5.43;;;;;;;17.78;100.00;99206.44;4975901;28;20217;-81
2022/05/02 09:24:08;;;;;;;8.53;6.00;;;;;;;17.73;100.00;99204.19;5026969;28;20221;-81
2022/05/02 09:27:22;;;;;;;8.10;5.73;;;;;;;17.89;100.00;99194.72;5031081;28;20194;-81
2022/05/02 09:30:26;;;;;;;8.00;5.77;;;;;;;18.17;100.00;99201.00;5030873;28;20193;-80
2022/05/02 09:33:40;;;;;;;7.70;5.97;;;;;;;18.10;100.00;99198.06;5025852;28;20232;-81
2022/05/02 09:36:29;;;;;;;8.67;5.83;;;;;;;18.16;100.00;99199.31;5000612;28;20253;-82
2022/05/02 09:39:13;;;;;;;9.40;6.07;;;;;;;18.05;100.00;99204.84;5019076;28;20225;-82
2022/05/02 09:42:09;;;;;;;7.97;6.07;;;;;;;17.96;100.00;99195.84;5022456;28;20308;-81
2022/05/02 09:51:28;;;;;;;8.57;6.20;;;;;;;18.24;100.00;99184.22;5031019;28;20692;-81
2022/05/02 09:54:05;;;;;;;9.10;6.30;;;;;;;18.37;100.00;99183.88;5026009;28;20212;-81
2022/05/02 09:56:41;;;;;;;10.83;5.97;;;;;;;18.63;100.00;99186.72;5051251;28;20193;-81
2022/05/02 09:59:19;;;;;;;8.97;5.37;;;;;;;18.79;100.00;99178.88;5054562;28;20223;-81
2022/05/02 10:02:05;;;;;;;6.80;6.13;;;;;;;18.67;100.00;99177.41;5051637;28;20213;-81
2022/05/02 10:04:49;;;;;;;8.70;6.10;;;;;;;18.83;100.00;99174.94;5055604;28;20284;-81
2022/05/02 10:07:24;;;;;;;7.80;6.30;;;;;;;18.84;100.00;99179.31;5070004;28;20203;-81
2022/05/02 10:10:07;;;;;;;9.00;5.77;;;;;;;18.93;100.00;99172.19;5068010;28;20195;-81
2022/05/02 10:12:47;;;;;;;8.37;5.80;;;;;;;19.11;100.00;99170.38;5069464;28;20275;-81
2022/05/02 10:15:54;;;;;;;8.20;5.93;;;;;;;19.26;100.00;99169.81;5074228;28;20223;-81
2022/05/02 10:18:44;;;;;;;8.53;5.90;;;;;;;19.28;100.00;99165.97;5065438;28;20222;-81
2022/05/02 10:21:40;;;;;;;7.60;6.10;;;;;;;19.50;97.14;99166.53;5069399;28;20228;-81
2022/05/02 10:24:39;;;;;;;6.67;5.30;;;;;;;19.34;100.00;99159.16;5066539;28;20225;-81
2022/05/02 10:27:25;;;;;;;7.33;5.73;;;;;;;19.58;100.00;99162.09;5057188;28;20220;-81
2022/05/02 10:30:11;;;;;;;6.33;5.50;;;;;;;19.44;100.00;99157.25;5052533;28;20185;-81
2022/05/02 10:32:45;;;;;;;7.63;5.80;;;;;;;19.27;99.27;99161.59;5053251;28;20228;-81
2022/05/02 10:35:16;;;;;;;7.50;5.50;;;;;;;19.36;99.65;99152.63;5034833;28;20197;-81
2022/05/02 10:37:56;;;;;;;7.57;5.80;;;;;;;19.23;100.00;99145.97;5056438;28;20196;-82
2022/05/02 10:40:33;;;;;;;8.57;5.70;;;;;;;19.59;100.00;99147.66;5050572;28;20231;-80
2022/05/02 10:43:06;;;;;;;7.53;4.90;;;;;;;19.79;97.30;99140.25;5055673;28;20208;-82
2022/05/02 10:45:36;;;;;;;6.10;5.50;;;;;;;19.72;98.27;99141.88;5055289;28;20196;-81
2022/05/02 10:48:22;;;;;;;6.33;5.30;;;;;;;20.54;89.99;99130.59;5057000;28;20211;-82
2022/05/02 10:51:01;;;;;;;6.50;5.40;;;;;;;20.86;85.97;99131.72;5048692;28;20197;-81
2022/05/02 10:53:52;;;;;;;9.97;5.40;;;;;;;20.51;85.18;99130.94;5053784;28;20192;-82
2022/05/02 10:56:32;;;;;;;6.13;5.50;;;;;;;20.67;87.43;99123.94;5053588;28;20212;-81
2022/05/02 10:59:08;;;;;;;9.33;4.73;;;;;;;21.37;85.81;99117.19;4974661;28;20226;-81
2022/05/02 11:02:15;;;;;;;9.00;5.73;;;;;;;20.82;85.86;99124.97;4967850;28;20306;-82
2022/05/02 11:05:04;;;;;;;6.50;5.63;;;;;;;20.25;86.82;99113.94;4968383;28;20278;-81
2022/05/02 11:07:56;;;;;;;6.53;4.83;;;;;;;21.18;78.13;99111.22;4967335;28;20258;-81
2022/05/02 11:10:28;;;;;;;7.50;4.60;;;;;;;21.61;75.49;99113.63;4919153;29;20208;-81
2022/05/02 11:13:24;;;;;;;5.70;4.87;;;;;;;22.24;70.03;99110.16;4932220;29;20208;-82
2022/05/02 11:16:03;;;;;;;6.63;5.13;;;;;;;22.23;67.46;99113.03;4932861;29;20321;-82
2022/05/02 11:21:53;;;;;;;5.65;4.80;;;;;;;22.68;59.81;99104.25;4935734;29;20689;-81
2022/05/02 11:24:43;;;;;;;5.28;4.70;;;;;;;23.36;61.22;99103.47;4932433;29;20200;-82
2022/05/02 11:27:47;;;;;;;7.72;5.22;;;;;;;23.32;60.05;99102.16;4936861;29;20208;-82
2022/05/02 11:30:20;;;;;;;5.35;4.57;;;;;;;22.58;60.60;99098.19;4897606;29;20237;-82
2022/05/02 11:33:04;;;;;;;5.18;4.68;;;;;;;22.28;63.74;99089.88;4943752;29;20240;-82
2022/05/02 11:35:34;;;;;;;7.38;4.65;;;;;;;22.38;62.46;99094.25;4957399;28;20203;-82
2022/05/02 11:38:10;;;;;;;5.40;4.85;;;;;;;23.09;57.18;99096.75;5024182;28;20205;-81
2022/05/02 11:40:46;;;;;;;7.68;5.00;;;;;;;23.60;54.93;99090.78;5040382;28;20221;-82
2022/05/02 11:43:20;;;;;;;6.82;4.97;;;;;;;23.40;53.44;99091.28;5053514;28;20197;-82
2022/05/02 11:45:57;;;;;;;12.02;4.78;;;;;;;23.36;55.62;99073.75;5052204;28;20288;-82
2022/05/02 11:48:47;;;;;;;6.55;4.50;;;;;;;23.75;55.75;99080.84;5049180;28;20224;-82
2022/05/02 11:51:28;;;;;;;7.78;4.22;;;;;;;23.77;52.17;99073.38;5054176;28;20193;-82
2022/05/02 11:54:05;;;;;;;8.10;4.15;;;;;;;24.23;50.91;99075.94;5053365;28;20250;-82
2022/05/02 11:56:48;;;;;;;7.05;4.93;;;;;;;23.91;52.80;99077.97;5052278;28;20254;-82
2022/05/02 11:59:23;;;;;;;6.82;4.40;;;;;;;24.27;47.74;99069.09;5055738;28;20189;-82
2022/05/02 12:02:08;;;;;;;5.78;4.53;;;;;;;24.02;50.40;99070.41;5051086;28;20291;-82
2022/05/02 12:04:45;;;;;;;6.60;4.95;;;;;;;24.23;46.80;99065.09;5048918;28;20276;-82
2022/05/02 12:07:23;;;;;;;7.07;4.68;;;;;;;24.09;48.61;99072.19;5053770;28;20200;-82
2022/05/02 12:10:02;;;;;;;4.85;4.43;;;;;;;24.41;50.76;99056.59;5052527;28;20193;-82
2022/05/02 12:12:32;;;;;;;7.35;4.45;;;;;;;24.94;46.10;99065.34;5052268;28;20652;-82
2022/05/02 12:15:04;;;;;;;5.50;4.50;;;;;;;25.14;44.71;99062.84;5053539;28;20203;-82
2022/05/02 12:17:32;;;;;;;6.20;4.30;;;;;;;24.79;46.87;99060.78;5053419;28;20193;-82
2022/05/02 12:20:22;;;;;;;6.43;4.45;;;;;;;24.58;47.64;99049.94;5053771;28;20200;-82
2022/05/02 12:22:55;;;;;;;7.85;5.22;;;;;;;24.52;46.43;99059.66;5044604;28;20221;-82
2022/05/02 12:25:28;;;;;;;8.25;5.43;;;;;;;23.84;46.23;99055.41;5051333;28;20193;-82
2022/05/02 12:27:58;;;;;;;6.95;4.63;;;;;;;24.47;46.63;99055.84;5049298;28;20195;-82
2022/05/02 12:30:28;;;;;;;4.53;4.07;;;;;;;24.52;48.08;99054.25;5052325;28;20220;-82
2022/05/02 12:33:05;;;;;;;6.00;4.68;;;;;;;24.00;48.17;99051.66;5047871;28;20224;-82
2022/05/02 12:35:42;;;;;;;5.82;4.60;;;;;;;24.53;48.79;99045.09;5049298;28;20189;-83
2022/05/02 12:38:17;;;;;;;6.85;5.10;;;;;;;24.39;44.68;99047.81;5042172;28;20613;-83
2022/05/02 12:40:52;;;;;;;5.07;4.38;;;;;;;24.22;46.47;99036.31;5048369;28;20659;-83